sensor_id;sensor_type;location;lat;lon;timestamp;temperature;humidity
7694;DHT22;3889;48.162;11.510;2023-05-19T00:01:46;10.20;99.90
7694;DHT22;3889;48.162;11.510;2023-05-19T00:04:15;10.10;99.90
7694;DHT22;3889;48.162;11.510;2023-05-19T00:06:49;10.10;99.90
7694;DHT22;3889;48.162;11.510;2023-05-19T00:09:17;10.10;99.90
7694;DHT22;3889;48.162;11.510;2023-05-19T00:11:46;10.10;99.90
7694;DHT22;3889;48.162;11.510;2023-05-19T00:14:16;10.10;99.90
7694;DHT22;3889;48.162;11.510;2023-05-19T00:16:44;10.10;99.90
7694;DHT22;3889;48.162;11.510;2023-05-19T00:19:13;10.00;99.90
7694;DHT22;3889;48.162;11.510;2023-05-19T00:21:42;10.10;99.90
7694;DHT22;3889;48.162;11.510;2023-05-19T00:24:10;10.00;99.90
7694;DHT22;3889;48.162;11.510;2023-05-19T00:26:38;10.00;99.90
7694;DHT22;3889;48.162;11.510;2023-05-19T00:29:06;10.00;99.90
7694;DHT22;3889;48.162;11.510;2023-05-19T00:31:35;10.00;99.90
7694;DHT22;3889;48.162;11.510;2023-05-19T00:34:03;10.00;99.90
7694;DHT22;3889;48.162;11.510;2023-05-19T00:36:32;10.00;99.90
7694;DHT22;3889;48.162;11.510;2023-05-19T00:38:59;9.90;99.90
7694;DHT22;3889;48.162;11.510;2023-05-19T00:41:27;10.00;99.90
7694;DHT22;3889;48.162;11.510;2023-05-19T00:43:55;9.90;99.90
7694;DHT22;3889;48.162;11.510;2023-05-19T00:46:24;9.80;99.90
7694;DHT22;3889;48.162;11.510;2023-05-19T00:48:53;9.80;99.90
7694;DHT22;3889;48.162;11.510;2023-05-19T00:51:22;9.80;99.90
7694;DHT22;3889;48.162;11.510;2023-05-19T00:53:50;9.80;99.90
7694;DHT22;3889;48.162;11.510;2023-05-19T00:56:19;9.80;99.90
7694;DHT22;3889;48.162;11.510;2023-05-19T00:58:50;9.80;99.90
7694;DHT22;3889;48.162;11.510;2023-05-19T01:01:18;9.80;99.90
7694;DHT22;3889;48.162;11.510;2023-05-19T01:03:47;9.80;99.90
7694;DHT22;3889;48.162;11.510;2023-05-19T01:06:16;9.80;99.90
7694;DHT22;3889;48.162;11.510;2023-05-19T01:08:46;9.90;99.90
7694;DHT22;3889;48.162;11.510;2023-05-19T01:11:14;9.90;99.90
7694;DHT22;3889;48.162;11.510;2023-05-19T01:13:42;9.80;99.90
7694;DHT22;3889;48.162;11.510;2023-05-19T01:16:12;9.80;99.90
7694;DHT22;3889;48.162;11.510;2023-05-19T01:18:46;9.80;99.90
7694;DHT22;3889;48.162;11.510;2023-05-19T01:21:38;9.80;99.90
7694;DHT22;3889;48.162;11.510;2023-05-19T01:24:25;9.70;99.90
7694;DHT22;3889;48.162;11.510;2023-05-19T01:27:20;9.70;99.90
7694;DHT22;3889;48.162;11.510;2023-05-19T01:33:05;9.60;99.90
7694;DHT22;3889;48.162;11.510;2023-05-19T01:35:34;9.60;99.90
7694;DHT22;3889;48.162;11.510;2023-05-19T01:38:06;9.50;99.90
7694;DHT22;3889;48.162;11.510;2023-05-19T01:40:35;9.50;99.90
7694;DHT22;3889;48.162;11.510;2023-05-19T01:43:04;9.50;99.90
7694;DHT22;3889;48.162;11.510;2023-05-19T01:45:33;9.40;99.90
7694;DHT22;3889;48.162;11.510;2023-05-19T01:48:03;9.40;99.90
7694;DHT22;3889;48.162;11.510;2023-05-19T01:50:35;9.40;99.90
7694;DHT22;3889;48.162;11.510;2023-05-19T01:53:03;9.40;99.90
7694;DHT22;3889;48.162;11.510;2023-05-19T01:55:31;9.40;99.90
7694;DHT22;3889;48.162;11.510;2023-05-19T01:58:05;9.30;99.90
7694;DHT22;3889;48.162;11.510;2023-05-19T02:00:46;9.30;99.90
7694;DHT22;3889;48.162;11.510;2023-05-19T02:03:29;9.40;99.90
7694;DHT22;3889;48.162;11.510;2023-05-19T02:06:06;9.30;99.90
7694;DHT22;3889;48.162;11.510;2023-05-19T02:08:41;9.30;99.90
7694;DHT22;3889;48.162;11.510;2023-05-19T02:11:14;9.20;99.90
7694;DHT22;3889;48.162;11.510;2023-05-19T02:13:49;9.20;99.90
7694;DHT22;3889;48.162;11.510;2023-05-19T02:16:20;9.30;99.90
7694;DHT22;3889;48.162;11.510;2023-05-19T02:18:50;9.30;99.90
7694;DHT22;3889;48.162;11.510;2023-05-19T02:21:19;9.30;99.90
7694;DHT22;3889;48.162;11.510;2023-05-19T02:23:47;9.40;99.90
7694;DHT22;3889;48.162;11.510;2023-05-19T02:26:15;9.20;99.90
7694;DHT22;3889;48.162;11.510;2023-05-19T02:28:43;9.20;99.90
7694;DHT22;3889;48.162;11.510;2023-05-19T02:31:11;9.20;99.90
7694;DHT22;3889;48.162;11.510;2023-05-19T02:33:39;9.20;99.90
7694;DHT22;3889;48.162;11.510;2023-05-19T02:36:09;9.20;99.90
7694;DHT22;3889;48.162;11.510;2023-05-19T02:38:40;9.20;99.90
7694;DHT22;3889;48.162;11.510;2023-05-19T02:41:07;9.20;99.90
7694;DHT22;3889;48.162;11.510;2023-05-19T02:43:35;9.20;99.90
7694;DHT22;3889;48.162;11.510;2023-05-19T02:46:03;9.20;99.90
7694;DHT22;3889;48.162;11.510;2023-05-19T02:48:31;9.20;99.90
7694;DHT22;3889;48.162;11.510;2023-05-19T02:50:59;9.20;99.90
7694;DHT22;3889;48.162;11.510;2023-05-19T02:53:29;9.20;99.90
7694;DHT22;3889;48.162;11.510;2023-05-19T02:55:57;9.20;99.90
7694;DHT22;3889;48.162;11.510;2023-05-19T02:58:25;9.20;99.90
7694;DHT22;3889;48.162;11.510;2023-05-19T03:00:53;9.20;99.90
7694;DHT22;3889;48.162;11.510;2023-05-19T03:03:21;9.20;99.90
7694;DHT22;3889;48.162;11.510;2023-05-19T03:05:49;9.10;99.90
7694;DHT22;3889;48.162;11.510;2023-05-19T03:08:19;9.20;99.90
7694;DHT22;3889;48.162;11.510;2023-05-19T03:10:48;9.10;99.90
7694;DHT22;3889;48.162;11.510;2023-05-19T03:13:16;9.20;99.90
7694;DHT22;3889;48.162;11.510;2023-05-19T03:15:44;9.20;99.90
7694;DHT22;3889;48.162;11.510;2023-05-19T03:18:12;9.10;99.90
7694;DHT22;3889;48.162;11.510;2023-05-19T03:20:42;9.10;99.90
7694;DHT22;3889;48.162;11.510;2023-05-19T03:23:10;9.10;99.90
7694;DHT22;3889;48.162;11.510;2023-05-19T03:25:38;9.10;99.90
7694;DHT22;3889;48.162;11.510;2023-05-19T03:28:07;9.20;99.90
7694;DHT22;3889;48.162;11.510;2023-05-19T03:30:35;9.10;99.90
7694;DHT22;3889;48.162;11.510;2023-05-19T03:33:03;9.10;99.90
7694;DHT22;3889;48.162;11.510;2023-05-19T03:35:31;9.10;99.90
7694;DHT22;3889;48.162;11.510;2023-05-19T03:37:59;9.10;99.90
7694;DHT22;3889;48.162;11.510;2023-05-19T03:40:27;9.10;99.90
7694;DHT22;3889;48.162;11.510;2023-05-19T03:42:55;9.00;99.90
7694;DHT22;3889;48.162;11.510;2023-05-19T03:45:24;9.00;99.90
7694;DHT22;3889;48.162;11.510;2023-05-19T03:47:52;9.10;99.90
7694;DHT22;3889;48.162;11.510;2023-05-19T03:50:20;9.10;99.90
7694;DHT22;3889;48.162;11.510;2023-05-19T03:52:48;9.10;99.90
7694;DHT22;3889;48.162;11.510;2023-05-19T03:55:16;9.10;99.90
7694;DHT22;3889;48.162;11.510;2023-05-19T03:57:45;9.10;99.90
7694;DHT22;3889;48.162;11.510;2023-05-19T04:00:15;9.10;99.90
7694;DHT22;3889;48.162;11.510;2023-05-19T04:02:44;9.20;99.90
7694;DHT22;3889;48.162;11.510;2023-05-19T04:05:13;9.10;99.90
7694;DHT22;3889;48.162;11.510;2023-05-19T04:07:41;9.10;99.90
7694;DHT22;3889;48.162;11.510;2023-05-19T04:10:11;9.10;99.90
7694;DHT22;3889;48.162;11.510;2023-05-19T04:12:39;9.10;99.90
7694;DHT22;3889;48.162;11.510;2023-05-19T04:15:07;9.10;99.90
7694;DHT22;3889;48.162;11.510;2023-05-19T04:17:37;9.10;99.90
7694;DHT22;3889;48.162;11.510;2023-05-19T04:20:07;9.20;99.90
7694;DHT22;3889;48.162;11.510;2023-05-19T04:22:35;9.20;99.90
7694;DHT22;3889;48.162;11.510;2023-05-19T04:25:03;9.30;99.90
7694;DHT22;3889;48.162;11.510;2023-05-19T04:27:31;9.20;99.90
7694;DHT22;3889;48.162;11.510;2023-05-19T04:30:02;9.30;99.90
7694;DHT22;3889;48.162;11.510;2023-05-19T04:32:31;9.30;99.90
7694;DHT22;3889;48.162;11.510;2023-05-19T04:34:59;9.30;99.90
7694;DHT22;3889;48.162;11.510;2023-05-19T04:37:30;9.40;99.90
7694;DHT22;3889;48.162;11.510;2023-05-19T04:39:58;9.30;99.90
7694;DHT22;3889;48.162;11.510;2023-05-19T04:42:25;9.30;99.90
7694;DHT22;3889;48.162;11.510;2023-05-19T04:44:56;9.40;99.90
7694;DHT22;3889;48.162;11.510;2023-05-19T04:47:24;9.40;99.90
7694;DHT22;3889;48.162;11.510;2023-05-19T04:49:53;9.40;99.90
7694;DHT22;3889;48.162;11.510;2023-05-19T04:52:21;9.40;99.90
7694;DHT22;3889;48.162;11.510;2023-05-19T04:54:51;9.40;99.90
7694;DHT22;3889;48.162;11.510;2023-05-19T04:57:19;9.50;99.90
7694;DHT22;3889;48.162;11.510;2023-05-19T04:59:47;9.70;99.90
7694;DHT22;3889;48.162;11.510;2023-05-19T05:02:15;9.80;99.90
7694;DHT22;3889;48.162;11.510;2023-05-19T05:04:43;9.70;99.90
7694;DHT22;3889;48.162;11.510;2023-05-19T05:07:12;9.80;99.90
7694;DHT22;3889;48.162;11.510;2023-05-19T05:09:40;9.80;99.90
7694;DHT22;3889;48.162;11.510;2023-05-19T05:12:11;9.80;99.90
7694;DHT22;3889;48.162;11.510;2023-05-19T05:14:39;9.80;99.90
7694;DHT22;3889;48.162;11.510;2023-05-19T05:17:09;9.90;99.90
7694;DHT22;3889;48.162;11.510;2023-05-19T05:19:37;10.00;99.90
7694;DHT22;3889;48.162;11.510;2023-05-19T05:22:06;10.10;99.90
7694;DHT22;3889;48.162;11.510;2023-05-19T05:24:34;10.00;99.90
7694;DHT22;3889;48.162;11.510;2023-05-19T05:27:02;10.00;99.90
7694;DHT22;3889;48.162;11.510;2023-05-19T05:29:32;10.10;99.90
7694;DHT22;3889;48.162;11.510;2023-05-19T05:32:00;10.30;99.90
7694;DHT22;3889;48.162;11.510;2023-05-19T05:34:28;10.50;99.90
7694;DHT22;3889;48.162;11.510;2023-05-19T05:36:57;10.50;99.90
7694;DHT22;3889;48.162;11.510;2023-05-19T05:39:25;10.60;99.90
7694;DHT22;3889;48.162;11.510;2023-05-19T05:41:54;10.60;99.90
7694;DHT22;3889;48.162;11.510;2023-05-19T05:44:22;10.80;99.90
7694;DHT22;3889;48.162;11.510;2023-05-19T05:46:51;10.80;99.90
7694;DHT22;3889;48.162;11.510;2023-05-19T05:49:20;11.00;99.90
7694;DHT22;3889;48.162;11.510;2023-05-19T05:51:48;11.10;99.90
7694;DHT22;3889;48.162;11.510;2023-05-19T05:54:32;11.00;99.90
7694;DHT22;3889;48.162;11.510;2023-05-19T05:57:01;11.00;99.90
7694;DHT22;3889;48.162;11.510;2023-05-19T05:59:29;11.10;99.90
7694;DHT22;3889;48.162;11.510;2023-05-19T06:02:00;11.00;99.90
7694;DHT22;3889;48.162;11.510;2023-05-19T06:04:28;11.10;99.90
7694;DHT22;3889;48.162;11.510;2023-05-19T06:06:56;11.10;99.90
7694;DHT22;3889;48.162;11.510;2023-05-19T06:09:27;11.20;99.90
7694;DHT22;3889;48.162;11.510;2023-05-19T06:11:57;11.40;99.90
7694;DHT22;3889;48.162;11.510;2023-05-19T06:14:25;11.50;99.90
7694;DHT22;3889;48.162;11.510;2023-05-19T06:16:53;11.40;99.90
7694;DHT22;3889;48.162;11.510;2023-05-19T06:19:22;11.40;99.90
7694;DHT22;3889;48.162;11.510;2023-05-19T06:21:51;11.60;99.90
7694;DHT22;3889;48.162;11.510;2023-05-19T06:24:19;11.70;99.90
7694;DHT22;3889;48.162;11.510;2023-05-19T06:26:47;11.60;99.90
7694;DHT22;3889;48.162;11.510;2023-05-19T06:29:15;11.60;99.90
7694;DHT22;3889;48.162;11.510;2023-05-19T06:31:43;11.50;99.90
7694;DHT22;3889;48.162;11.510;2023-05-19T06:34:11;11.40;99.90
7694;DHT22;3889;48.162;11.510;2023-05-19T06:36:44;11.40;99.90
7694;DHT22;3889;48.162;11.510;2023-05-19T06:39:12;11.50;99.90
7694;DHT22;3889;48.162;11.510;2023-05-19T06:41:40;11.40;99.90
7694;DHT22;3889;48.162;11.510;2023-05-19T06:44:08;11.50;99.90
7694;DHT22;3889;48.162;11.510;2023-05-19T06:46:36;11.60;99.90
7694;DHT22;3889;48.162;11.510;2023-05-19T06:49:04;11.70;99.90
7694;DHT22;3889;48.162;11.510;2023-05-19T06:51:31;11.70;99.90
7694;DHT22;3889;48.162;11.510;2023-05-19T06:54:02;11.90;99.90
7694;DHT22;3889;48.162;11.510;2023-05-19T06:56:30;12.00;99.90
7694;DHT22;3889;48.162;11.510;2023-05-19T06:58:58;12.00;99.90
7694;DHT22;3889;48.162;11.510;2023-05-19T07:01:26;12.10;99.90
7694;DHT22;3889;48.162;11.510;2023-05-19T07:03:55;12.20;99.90
7694;DHT22;3889;48.162;11.510;2023-05-19T07:06:23;12.30;99.90
7694;DHT22;3889;48.162;11.510;2023-05-19T07:08:51;12.20;99.90
7694;DHT22;3889;48.162;11.510;2023-05-19T07:11:21;12.20;99.90
7694;DHT22;3889;48.162;11.510;2023-05-19T07:13:49;12.30;99.90
7694;DHT22;3889;48.162;11.510;2023-05-19T07:16:17;12.40;99.90
7694;DHT22;3889;48.162;11.510;2023-05-19T07:18:45;12.60;99.90
7694;DHT22;3889;48.162;11.510;2023-05-19T07:21:13;12.60;99.90
7694;DHT22;3889;48.162;11.510;2023-05-19T07:23:41;12.60;99.90
7694;DHT22;3889;48.162;11.510;2023-05-19T07:26:09;12.50;99.90
7694;DHT22;3889;48.162;11.510;2023-05-19T07:28:38;12.30;99.90
7694;DHT22;3889;48.162;11.510;2023-05-19T07:31:08;12.40;99.90
7694;DHT22;3889;48.162;11.510;2023-05-19T07:33:36;12.40;99.90
7694;DHT22;3889;48.162;11.510;2023-05-19T07:36:04;12.50;99.90
7694;DHT22;3889;48.162;11.510;2023-05-19T07:38:32;12.60;99.90
7694;DHT22;3889;48.162;11.510;2023-05-19T07:41:01;12.50;99.90
7694;DHT22;3889;48.162;11.510;2023-05-19T07:43:30;12.60;99.90
7694;DHT22;3889;48.162;11.510;2023-05-19T07:45:59;12.80;99.90
7694;DHT22;3889;48.162;11.510;2023-05-19T07:48:27;12.50;99.90
7694;DHT22;3889;48.162;11.510;2023-05-19T07:50:55;12.30;99.90
7694;DHT22;3889;48.162;11.510;2023-05-19T07:53:23;12.30;99.90
7694;DHT22;3889;48.162;11.510;2023-05-19T07:55:51;12.60;99.90
7694;DHT22;3889;48.162;11.510;2023-05-19T07:58:20;12.80;99.90
7694;DHT22;3889;48.162;11.510;2023-05-19T08:00:48;12.90;99.90
7694;DHT22;3889;48.162;11.510;2023-05-19T08:03:17;12.90;99.90
7694;DHT22;3889;48.162;11.510;2023-05-19T08:05:47;12.80;99.90
7694;DHT22;3889;48.162;11.510;2023-05-19T08:08:14;12.60;99.90
7694;DHT22;3889;48.162;11.510;2023-05-19T08:10:42;12.60;99.90
7694;DHT22;3889;48.162;11.510;2023-05-19T08:13:10;12.80;99.90
7694;DHT22;3889;48.162;11.510;2023-05-19T08:15:38;12.80;99.90
7694;DHT22;3889;48.162;11.510;2023-05-19T08:18:07;12.80;99.90
7694;DHT22;3889;48.162;11.510;2023-05-19T08:20:36;12.70;99.90
7694;DHT22;3889;48.162;11.510;2023-05-19T08:23:04;12.80;99.90
7694;DHT22;3889;48.162;11.510;2023-05-19T08:25:32;12.60;99.90
7694;DHT22;3889;48.162;11.510;2023-05-19T08:28:00;12.70;99.90
7694;DHT22;3889;48.162;11.510;2023-05-19T08:30:28;12.50;99.90
7694;DHT22;3889;48.162;11.510;2023-05-19T08:32:56;12.50;99.90
7694;DHT22;3889;48.162;11.510;2023-05-19T08:35:24;12.40;99.90
7694;DHT22;3889;48.162;11.510;2023-05-19T08:37:54;12.30;99.90
7694;DHT22;3889;48.162;11.510;2023-05-19T08:40:22;12.40;99.90
7694;DHT22;3889;48.162;11.510;2023-05-19T08:42:50;12.40;99.90
7694;DHT22;3889;48.162;11.510;2023-05-19T08:45:18;12.30;99.90
7694;DHT22;3889;48.162;11.510;2023-05-19T08:47:46;12.40;99.90
7694;DHT22;3889;48.162;11.510;2023-05-19T08:50:17;12.40;99.90
7694;DHT22;3889;48.162;11.510;2023-05-19T08:52:50;12.50;99.90
7694;DHT22;3889;48.162;11.510;2023-05-19T08:55:30;12.40;99.90
7694;DHT22;3889;48.162;11.510;2023-05-19T08:58:03;12.50;99.90
7694;DHT22;3889;48.162;11.510;2023-05-19T09:00:31;12.60;99.90
7694;DHT22;3889;48.162;11.510;2023-05-19T09:03:00;12.70;99.90
7694;DHT22;3889;48.162;11.510;2023-05-19T09:05:48;12.60;99.90
7694;DHT22;3889;48.162;11.510;2023-05-19T09:08:17;12.70;99.90
7694;DHT22;3889;48.162;11.510;2023-05-19T09:10:46;12.60;99.90
7694;DHT22;3889;48.162;11.510;2023-05-19T09:13:14;12.60;99.90
7694;DHT22;3889;48.162;11.510;2023-05-19T09:15:43;12.50;99.90
7694;DHT22;3889;48.162;11.510;2023-05-19T09:18:12;12.30;99.90
7694;DHT22;3889;48.162;11.510;2023-05-19T09:20:43;12.40;99.90
7694;DHT22;3889;48.162;11.510;2023-05-19T09:23:12;12.30;99.90
7694;DHT22;3889;48.162;11.510;2023-05-19T09:25:52;12.30;99.90
7694;DHT22;3889;48.162;11.510;2023-05-19T09:28:24;12.40;99.90
7694;DHT22;3889;48.162;11.510;2023-05-19T09:31:00;12.50;99.90
7694;DHT22;3889;48.162;11.510;2023-05-19T09:33:28;12.50;99.90
7694;DHT22;3889;48.162;11.510;2023-05-19T09:35:56;12.70;99.90
7694;DHT22;3889;48.162;11.510;2023-05-19T09:38:24;13.10;99.90
7694;DHT22;3889;48.162;11.510;2023-05-19T09:40:55;13.10;99.90
7694;DHT22;3889;48.162;11.510;2023-05-19T09:43:26;13.10;99.90
7694;DHT22;3889;48.162;11.510;2023-05-19T09:45:57;13.30;99.90
7694;DHT22;3889;48.162;11.510;2023-05-19T09:48:26;13.40;99.90
7694;DHT22;3889;48.162;11.510;2023-05-19T09:50:54;13.30;99.90
7694;DHT22;3889;48.162;11.510;2023-05-19T09:53:23;13.30;99.90
7694;DHT22;3889;48.162;11.510;2023-05-19T09:55:55;13.10;99.90
7694;DHT22;3889;48.162;11.510;2023-05-19T09:58:24;13.10;99.90
7694;DHT22;3889;48.162;11.510;2023-05-19T10:00:52;13.30;99.90
7694;DHT22;3889;48.162;11.510;2023-05-19T10:03:21;13.30;99.90
7694;DHT22;3889;48.162;11.510;2023-05-19T10:05:50;13.30;99.90
7694;DHT22;3889;48.162;11.510;2023-05-19T10:08:19;13.30;99.90
7694;DHT22;3889;48.162;11.510;2023-05-19T10:10:49;13.20;99.90
7694;DHT22;3889;48.162;11.510;2023-05-19T10:13:20;13.20;99.90
7694;DHT22;3889;48.162;11.510;2023-05-19T10:15:49;13.10;99.90
7694;DHT22;3889;48.162;11.510;2023-05-19T10:18:22;13.20;99.90
7694;DHT22;3889;48.162;11.510;2023-05-19T10:20:53;13.20;99.90
7694;DHT22;3889;48.162;11.510;2023-05-19T10:23:21;12.90;99.90
7694;DHT22;3889;48.162;11.510;2023-05-19T10:25:52;12.90;99.90
7694;DHT22;3889;48.162;11.510;2023-05-19T10:28:25;12.90;99.90
7694;DHT22;3889;48.162;11.510;2023-05-19T10:30:56;12.60;99.90
7694;DHT22;3889;48.162;11.510;2023-05-19T10:33:30;12.70;99.90
7694;DHT22;3889;48.162;11.510;2023-05-19T10:36:09;12.70;99.90
7694;DHT22;3889;48.162;11.510;2023-05-19T10:38:47;12.60;99.90
7694;DHT22;3889;48.162;11.510;2023-05-19T10:41:21;12.70;99.90
7694;DHT22;3889;48.162;11.510;2023-05-19T10:44:00;12.70;99.90
7694;DHT22;3889;48.162;11.510;2023-05-19T10:46:31;12.70;99.90
7694;DHT22;3889;48.162;11.510;2023-05-19T10:48:59;12.60;99.90
7694;DHT22;3889;48.162;11.510;2023-05-19T10:51:29;12.70;99.90
7694;DHT22;3889;48.162;11.510;2023-05-19T10:53:57;12.60;99.90
7694;DHT22;3889;48.162;11.510;2023-05-19T10:56:29;12.70;99.90
7694;DHT22;3889;48.162;11.510;2023-05-19T10:59:01;12.80;99.90
7694;DHT22;3889;48.162;11.510;2023-05-19T11:01:31;13.00;99.90
7694;DHT22;3889;48.162;11.510;2023-05-19T11:04:04;13.10;99.90
7694;DHT22;3889;48.162;11.510;2023-05-19T11:06:33;13.30;99.90
7694;DHT22;3889;48.162;11.510;2023-05-19T11:09:11;13.30;99.90
7694;DHT22;3889;48.162;11.510;2023-05-19T11:11:45;13.50;99.90
7694;DHT22;3889;48.162;11.510;2023-05-19T11:14:16;13.50;99.90
7694;DHT22;3889;48.162;11.510;2023-05-19T11:16:49;13.30;99.90
7694;DHT22;3889;48.162;11.510;2023-05-19T11:19:18;13.40;99.90
7694;DHT22;3889;48.162;11.510;2023-05-19T11:21:47;13.30;99.90
7694;DHT22;3889;48.162;11.510;2023-05-19T11:24:35;12.80;99.90
7694;DHT22;3889;48.162;11.510;2023-05-19T11:27:23;12.90;99.90
7694;DHT22;3889;48.162;11.510;2023-05-19T11:29:54;13.00;99.90
7694;DHT22;3889;48.162;11.510;2023-05-19T11:32:26;13.20;99.90
7694;DHT22;3889;48.162;11.510;2023-05-19T11:34:54;13.40;99.90
7694;DHT22;3889;48.162;11.510;2023-05-19T11:37:22;13.40;99.90
7694;DHT22;3889;48.162;11.510;2023-05-19T11:39:51;13.60;99.90
7694;DHT22;3889;48.162;11.510;2023-05-19T11:42:19;13.60;99.90
7694;DHT22;3889;48.162;11.510;2023-05-19T11:44:47;13.80;99.90
7694;DHT22;3889;48.162;11.510;2023-05-19T11:47:17;13.60;99.90
7694;DHT22;3889;48.162;11.510;2023-05-19T11:49:47;14.00;99.90
7694;DHT22;3889;48.162;11.510;2023-05-19T11:52:15;13.90;99.90
7694;DHT22;3889;48.162;11.510;2023-05-19T11:54:47;13.60;99.90
7694;DHT22;3889;48.162;11.510;2023-05-19T11:57:15;13.50;99.90
7694;DHT22;3889;48.162;11.510;2023-05-19T11:59:43;13.70;99.90
7694;DHT22;3889;48.162;11.510;2023-05-19T12:02:17;13.60;99.90
7694;DHT22;3889;48.162;11.510;2023-05-19T12:04:46;13.40;99.90
7694;DHT22;3889;48.162;11.510;2023-05-19T12:07:15;13.40;99.90
7694;DHT22;3889;48.162;11.510;2023-05-19T12:09:44;13.30;99.90
7694;DHT22;3889;48.162;11.510;2023-05-19T12:12:13;13.20;99.90
7694;DHT22;3889;48.162;11.510;2023-05-19T12:14:42;13.20;99.90
7694;DHT22;3889;48.162;11.510;2023-05-19T12:17:11;13.20;99.90
7694;DHT22;3889;48.162;11.510;2023-05-19T12:19:42;13.20;99.90
7694;DHT22;3889;48.162;11.510;2023-05-19T12:22:10;13.20;99.90
7694;DHT22;3889;48.162;11.510;2023-05-19T12:24:39;13.30;99.90
7694;DHT22;3889;48.162;11.510;2023-05-19T12:27:13;13.20;99.90
7694;DHT22;3889;48.162;11.510;2023-05-19T12:29:48;13.10;99.90
7694;DHT22;3889;48.162;11.510;2023-05-19T12:32:16;13.10;99.90
7694;DHT22;3889;48.162;11.510;2023-05-19T12:34:45;13.10;99.90
7694;DHT22;3889;48.162;11.510;2023-05-19T12:37:13;13.00;99.90
7694;DHT22;3889;48.162;11.510;2023-05-19T12:39:41;13.10;99.90
7694;DHT22;3889;48.162;11.510;2023-05-19T12:42:10;13.00;99.90
7694;DHT22;3889;48.162;11.510;2023-05-19T12:44:43;13.00;99.90
7694;DHT22;3889;48.162;11.510;2023-05-19T12:47:13;12.90;99.90
7694;DHT22;3889;48.162;11.510;2023-05-19T12:49:54;12.90;99.90
7694;DHT22;3889;48.162;11.510;2023-05-19T12:52:23;13.00;99.90
7694;DHT22;3889;48.162;11.510;2023-05-19T12:54:57;13.10;99.90
7694;DHT22;3889;48.162;11.510;2023-05-19T12:57:26;13.20;99.90
7694;DHT22;3889;48.162;11.510;2023-05-19T12:59:59;13.20;99.90
7694;DHT22;3889;48.162;11.510;2023-05-19T13:02:27;13.30;99.90
7694;DHT22;3889;48.162;11.510;2023-05-19T13:04:56;13.40;99.90
7694;DHT22;3889;48.162;11.510;2023-05-19T13:07:25;13.30;99.90
7694;DHT22;3889;48.162;11.510;2023-05-19T13:09:53;13.40;99.90
7694;DHT22;3889;48.162;11.510;2023-05-19T13:12:20;13.70;99.90
7694;DHT22;3889;48.162;11.510;2023-05-19T13:14:48;13.80;99.90
7694;DHT22;3889;48.162;11.510;2023-05-19T13:17:19;14.10;99.90
7694;DHT22;3889;48.162;11.510;2023-05-19T13:19:46;14.40;99.90
7694;DHT22;3889;48.162;11.510;2023-05-19T13:22:16;14.50;99.90
7694;DHT22;3889;48.162;11.510;2023-05-19T13:24:44;14.50;99.90
7694;DHT22;3889;48.162;11.510;2023-05-19T13:27:11;14.70;99.90
7694;DHT22;3889;48.162;11.510;2023-05-19T13:29:39;14.90;99.90
7694;DHT22;3889;48.162;11.510;2023-05-19T13:32:07;15.20;99.90
7694;DHT22;3889;48.162;11.510;2023-05-19T13:34:37;15.30;99.90
7694;DHT22;3889;48.162;11.510;2023-05-19T13:37:05;15.40;99.90
7694;DHT22;3889;48.162;11.510;2023-05-19T13:39:37;15.40;99.90
7694;DHT22;3889;48.162;11.510;2023-05-19T13:42:06;15.40;99.90
7694;DHT22;3889;48.162;11.510;2023-05-19T13:44:34;15.30;99.90
7694;DHT22;3889;48.162;11.510;2023-05-19T13:47:01;15.40;99.90
7694;DHT22;3889;48.162;11.510;2023-05-19T13:49:30;15.30;99.90
7694;DHT22;3889;48.162;11.510;2023-05-19T13:51:57;15.40;99.90
7694;DHT22;3889;48.162;11.510;2023-05-19T13:54:26;15.20;99.90
7694;DHT22;3889;48.162;11.510;2023-05-19T13:56:55;15.20;99.90
7694;DHT22;3889;48.162;11.510;2023-05-19T13:59:24;15.40;99.90
7694;DHT22;3889;48.162;11.510;2023-05-19T14:01:52;15.40;99.90
7694;DHT22;3889;48.162;11.510;2023-05-19T14:04:20;15.40;99.90
7694;DHT22;3889;48.162;11.510;2023-05-19T14:06:49;15.30;99.90
7694;DHT22;3889;48.162;11.510;2023-05-19T14:09:17;15.10;99.90
7694;DHT22;3889;48.162;11.510;2023-05-19T14:11:46;15.30;99.90
7694;DHT22;3889;48.162;11.510;2023-05-19T14:14:15;15.40;99.90
7694;DHT22;3889;48.162;11.510;2023-05-19T14:16:43;15.20;99.90
7694;DHT22;3889;48.162;11.510;2023-05-19T14:19:11;15.20;99.90
7694;DHT22;3889;48.162;11.510;2023-05-19T14:21:39;15.10;99.90
7694;DHT22;3889;48.162;11.510;2023-05-19T14:24:07;15.20;99.90
7694;DHT22;3889;48.162;11.510;2023-05-19T14:26:35;15.20;99.90
7694;DHT22;3889;48.162;11.510;2023-05-19T14:29:02;15.20;99.90
7694;DHT22;3889;48.162;11.510;2023-05-19T14:31:32;15.10;99.90
7694;DHT22;3889;48.162;11.510;2023-05-19T14:34:00;15.10;99.90
7694;DHT22;3889;48.162;11.510;2023-05-19T14:36:27;15.00;99.90
7694;DHT22;3889;48.162;11.510;2023-05-19T14:38:56;15.20;99.90
7694;DHT22;3889;48.162;11.510;2023-05-19T14:41:23;15.20;99.90
7694;DHT22;3889;48.162;11.510;2023-05-19T14:43:51;15.20;99.90
7694;DHT22;3889;48.162;11.510;2023-05-19T14:46:19;15.40;99.90
7694;DHT22;3889;48.162;11.510;2023-05-19T14:48:49;15.30;99.90
7694;DHT22;3889;48.162;11.510;2023-05-19T14:51:16;15.30;99.90
7694;DHT22;3889;48.162;11.510;2023-05-19T14:53:44;15.40;99.90
7694;DHT22;3889;48.162;11.510;2023-05-19T14:56:12;15.30;99.90
7694;DHT22;3889;48.162;11.510;2023-05-19T14:58:40;15.30;99.90
7694;DHT22;3889;48.162;11.510;2023-05-19T15:01:08;15.10;99.90
7694;DHT22;3889;48.162;11.510;2023-05-19T15:03:36;15.10;99.90
7694;DHT22;3889;48.162;11.510;2023-05-19T15:06:08;15.10;99.90
7694;DHT22;3889;48.162;11.510;2023-05-19T15:08:37;15.10;99.90
7694;DHT22;3889;48.162;11.510;2023-05-19T15:11:06;15.10;99.90
7694;DHT22;3889;48.162;11.510;2023-05-19T15:13:34;15.10;99.90
7694;DHT22;3889;48.162;11.510;2023-05-19T15:16:02;15.10;99.90
7694;DHT22;3889;48.162;11.510;2023-05-19T15:18:42;15.10;99.90
7694;DHT22;3889;48.162;11.510;2023-05-19T15:21:12;15.10;99.90
7694;DHT22;3889;48.162;11.510;2023-05-19T15:23:40;15.10;99.90
7694;DHT22;3889;48.162;11.510;2023-05-19T15:26:08;15.10;99.90
7694;DHT22;3889;48.162;11.510;2023-05-19T15:28:36;15.10;99.90
7694;DHT22;3889;48.162;11.510;2023-05-19T15:31:04;15.10;99.90
7694;DHT22;3889;48.162;11.510;2023-05-19T15:33:32;15.00;99.90
7694;DHT22;3889;48.162;11.510;2023-05-19T15:35:59;14.90;99.90
7694;DHT22;3889;48.162;11.510;2023-05-19T15:38:29;15.00;99.90
7694;DHT22;3889;48.162;11.510;2023-05-19T15:40:57;15.00;99.90
7694;DHT22;3889;48.162;11.510;2023-05-19T15:43:24;15.10;99.90
7694;DHT22;3889;48.162;11.510;2023-05-19T15:45:52;15.30;99.90
7694;DHT22;3889;48.162;11.510;2023-05-19T15:48:21;15.30;99.90
7694;DHT22;3889;48.162;11.510;2023-05-19T15:50:50;15.40;99.90
7694;DHT22;3889;48.162;11.510;2023-05-19T15:53:18;15.50;99.90
7694;DHT22;3889;48.162;11.510;2023-05-19T15:55:47;15.50;99.90
7694;DHT22;3889;48.162;11.510;2023-05-19T15:58:15;15.70;99.90
7694;DHT22;3889;48.162;11.510;2023-05-19T16:00:43;16.00;99.90
7694;DHT22;3889;48.162;11.510;2023-05-19T16:03:11;16.20;99.90
7694;DHT22;3889;48.162;11.510;2023-05-19T16:05:39;16.30;99.90
7694;DHT22;3889;48.162;11.510;2023-05-19T16:08:07;16.10;99.90